Time;durP1;ratioP1;P1;durP2;ratioP2;P2;SDS_P1;SDS_P2;PMS_P1;PMS_P2;Temp;Humidity;BMP_temperature;BMP_pressure;BME280_temperature;BME280_humidity;BME280_pressure;Samples;Min_cycle;Max_cycle;Signal;HPM_P1;HPM_P2
2023/09/10 00:00:33;;;;;;;1.80;1.60;;;22.10;99.90;;;;;;5082956;28;20076;-75
2023/09/10 00:03:00;;;;;;;2.63;1.90;;;22.20;99.90;;;;;;5082964;28;20048;-75
2023/09/10 00:05:27;;;;;;;2.20;2.00;;;22.10;99.90;;;;;;5066534;28;20048;-75
2023/09/10 00:07:54;;;;;;;2.15;1.83;;;22.10;99.90;;;;;;5083148;28;20062;-75
2023/09/10 00:10:21;;;;;;;2.45;2.03;;;22.00;99.90;;;;;;5088335;28;20147;-75
2023/09/10 00:12:47;;;;;;;2.35;1.85;;;22.00;99.90;;;;;;5088278;28;20129;-75
2023/09/10 00:15:14;;;;;;;2.63;1.85;;;22.00;99.90;;;;;;5085215;28;20499;-74
2023/09/10 00:17:41;;;;;;;2.83;2.15;;;21.90;99.90;;;;;;5086713;28;20097;-75
2023/09/10 00:20:10;;;;;;;2.72;1.90;;;21.90;99.90;;;;;;5086055;28;20208;-75
2023/09/10 00:22:42;;;;;;;2.60;2.22;;;21.90;99.90;;;;;;5085349;28;20048;-75
2023/09/10 00:25:10;;;;;;;2.45;2.10;;;21.90;99.90;;;;;;5087693;28;20048;-75
2023/09/10 00:27:37;;;;;;;2.40;2.20;;;21.90;99.90;;;;;;5083209;28;20044;-75
2023/09/10 00:30:04;;;;;;;2.80;2.53;;;21.80;99.90;;;;;;5082946;28;20548;-75
2023/09/10 00:32:31;;;;;;;2.60;2.25;;;21.80;99.90;;;;;;5086115;28;20126;-75
2023/09/10 00:34:58;;;;;;;2.38;2.17;;;21.70;99.90;;;;;;5086821;28;20047;-75
2023/09/10 00:37:24;;;;;;;2.53;2.25;;;21.60;99.90;;;;;;5087664;28;20110;-75
2023/09/10 00:39:51;;;;;;;2.10;1.90;;;21.60;99.90;;;;;;5087453;28;20040;-75
2023/09/10 00:42:18;;;;;;;2.17;1.80;;;21.50;99.90;;;;;;5087557;28;20511;-75
2023/09/10 00:44:45;;;;;;;2.30;2.03;;;21.60;99.90;;;;;;5081521;28;20048;-75
2023/09/10 00:47:11;;;;;;;2.60;2.05;;;21.50;99.90;;;;;;5085820;28;20052;-75
2023/09/10 00:49:38;;;;;;;2.30;2.08;;;21.50;99.90;;;;;;5086035;28;20101;-75
2023/09/10 00:52:05;;;;;;;3.00;2.40;;;21.40;99.90;;;;;;5085933;28;20365;-75
2023/09/10 00:54:32;;;;;;;2.47;2.10;;;21.30;99.90;;;;;;5081800;28;20040;-75
2023/09/10 00:57:02;;;;;;;2.22;1.95;;;21.30;99.90;;;;;;5086084;28;20051;-75
2023/09/10 00:59:29;;;;;;;2.42;2.13;;;21.20;99.90;;;;;;5084396;28;20056;-74
2023/09/10 01:01:59;;;;;;;2.55;2.22;;;21.20;99.90;;;;;;5068043;28;20136;-75
2023/09/10 01:04:26;;;;;;;3.05;2.50;;;21.20;99.90;;;;;;5078895;28;20047;-75
2023/09/10 01:06:53;;;;;;;3.88;3.03;;;21.20;99.90;;;;;;5083301;28;20145;-76
2023/09/10 01:09:20;;;;;;;3.72;2.80;;;21.30;99.90;;;;;;5085966;28;20044;-76
2023/09/10 01:12:14;;;;;;;2.80;2.47;;;21.30;99.90;;;;;;5086838;28;20052;-76
2023/09/10 01:14:42;;;;;;;2.60;2.35;;;21.30;99.90;;;;;;5084309;28;20051;-76
2023/09/10 01:17:15;;;;;;;5.63;2.80;;;21.20;99.90;;;;;;5068970;28;20060;-76
2023/09/10 01:20:14;;;;;;;5.25;2.63;;;21.20;99.90;;;;;;5086486;28;20101;-75
2023/09/10 01:22:58;;;;;;;4.07;2.72;;;21.20;99.90;;;;;;5070298;28;20141;-76
2023/09/10 01:25:25;;;;;;;3.83;2.88;;;21.20;99.90;;;;;;5068737;28;20301;-76
2023/09/10 01:27:52;;;;;;;5.30;2.83;;;21.10;99.90;;;;;;5085002;28;20544;-75
2023/09/10 01:30:18;;;;;;;5.65;2.92;;;21.10;99.90;;;;;;5083290;28;20048;-75
2023/09/10 01:32:48;;;;;;;3.95;2.40;;;21.00;99.90;;;;;;5080648;28;20060;-75
2023/09/10 01:35:31;;;;;;;7.43;3.10;;;21.00;99.90;;;;;;5083648;28;20143;-76
2023/09/10 01:38:17;;;;;;;3.58;2.30;;;21.00;99.90;;;;;;5080016;28;20292;-77
2023/09/10 01:40:46;;;;;;;3.25;2.38;;;21.00;99.90;;;;;;5085849;28;20090;-75
2023/09/10 01:43:12;;;;;;;4.40;2.10;;;21.00;99.90;;;;;;5086048;28;20395;-75
2023/09/10 01:45:39;;;;;;;10.40;2.72;;;21.00;99.90;;;;;;5087013;28;20669;-76
2023/09/10 01:48:06;;;;;;;3.28;2.60;;;20.90;99.90;;;;;;5051061;28;20109;-76
2023/09/10 01:50:33;;;;;;;3.67;2.15;;;20.90;99.90;;;;;;5085408;28;20113;-76
2023/09/10 01:53:00;;;;;;;2.60;2.35;;;20.80;99.90;;;;;;5086334;28;20051;-75
2023/09/10 01:55:26;;;;;;;2.42;1.92;;;20.80;99.90;;;;;;5086692;28;20048;-76
2023/09/10 01:57:54;;;;;;;2.22;1.90;;;20.80;99.90;;;;;;5086673;28;20085;-76
2023/09/10 02:00:21;;;;;;;2.33;2.13;;;20.70;99.90;;;;;;5067544;28;20442;-76
2023/09/10 02:02:48;;;;;;;3.35;2.22;;;20.70;99.90;;;;;;5085314;28;20051;-76
2023/09/10 02:05:15;;;;;;;2.80;1.92;;;20.70;99.90;;;;;;5051348;28;20044;-76
2023/09/10 02:07:42;;;;;;;2.85;2.17;;;20.70;99.90;;;;;;5085226;28;20044;-76
2023/09/10 02:10:10;;;;;;;2.53;1.90;;;20.60;99.90;;;;;;5084881;28;20046;-75
2023/09/10 02:12:37;;;;;;;2.45;1.90;;;20.60;99.90;;;;;;5085397;28;20039;-75
2023/09/10 02:15:06;;;;;;;2.33;1.90;;;20.50;99.90;;;;;;5083583;28;20048;-76
2023/09/10 02:17:33;;;;;;;2.60;1.90;;;20.50;99.90;;;;;;5086328;28;20455;-75
2023/09/10 02:20:00;;;;;;;2.03;1.83;;;20.50;99.90;;;;;;5084647;28;20058;-75
2023/09/10 02:22:27;;;;;;;1.83;1.60;;;20.50;99.90;;;;;;5068016;28;20167;-75
2023/09/10 02:24:54;;;;;;;1.88;1.70;;;20.50;99.90;;;;;;5085891;28;20143;-75
2023/09/10 02:27:21;;;;;;;2.13;1.63;;;20.50;99.90;;;;;;5083318;28;20113;-76
2023/09/10 02:29:48;;;;;;;2.30;1.80;;;20.50;99.90;;;;;;5065992;28;20047;-75
2023/09/10 02:32:14;;;;;;;2.28;1.90;;;20.50;99.90;;;;;;5085079;28;20048;-76
2023/09/10 02:34:41;;;;;;;2.20;1.75;;;20.40;99.90;;;;;;5085737;28;20721;-76
2023/09/10 02:37:08;;;;;;;2.25;1.73;;;20.40;99.90;;;;;;5085069;28;20131;-76
2023/09/10 02:39:35;;;;;;;1.90;1.75;;;20.40;99.90;;;;;;5083019;28;20036;-76
2023/09/10 02:42:02;;;;;;;2.22;1.92;;;20.30;99.90;;;;;;5081836;28;20074;-76
2023/09/10 02:44:29;;;;;;;1.90;1.35;;;20.30;99.90;;;;;;5084489;28;20127;-75
2023/09/10 02:46:55;;;;;;;2.03;1.60;;;20.30;99.90;;;;;;5065677;28;20048;-75
2023/09/10 02:49:24;;;;;;;2.03;1.83;;;20.30;99.90;;;;;;5085103;28;20050;-75
2023/09/10 02:51:51;;;;;;;2.10;1.90;;;20.20;99.90;;;;;;5084998;28;20200;-75
2023/09/10 02:54:18;;;;;;;2.10;1.80;;;20.20;99.90;;;;;;5084730;28;20659;-76
2023/09/10 02:56:45;;;;;;;2.47;1.73;;;20.20;99.90;;;;;;5067338;28;20473;-76
2023/09/10 02:59:25;;;;;;;2.20;1.77;;;20.20;1.00;;;;;;5066586;28;20056;-76
2023/09/10 03:01:52;;;;;;;2.83;2.28;;;20.20;99.90;;;;;;5084296;28;20043;-76
2023/09/10 03:04:19;;;;;;;2.47;1.95;;;20.20;99.90;;;;;;5084050;28;20117;-76
2023/09/10 03:06:47;;;;;;;2.33;1.88;;;20.20;99.90;;;;;;5067810;28;20071;-76
2023/09/10 03:09:14;;;;;;;2.35;2.08;;;20.20;99.90;;;;;;5083835;28;20836;-76
2023/09/10 03:11:42;;;;;;;1.75;1.52;;;20.10;1.00;;;;;;5066955;28;20123;-76
2023/09/10 03:14:09;;;;;;;2.17;1.73;;;20.10;1.00;;;;;;5080331;28;20523;-75
2023/09/10 03:16:40;;;;;;;1.50;1.40;;;20.00;1.00;;;;;;5085504;28;20051;-75
2023/09/10 03:19:07;;;;;;;2.03;1.60;;;20.00;1.00;;;;;;5067722;28;20160;-76
2023/09/10 03:21:35;;;;;;;2.35;1.80;;;20.00;1.00;;;;;;5066312;28;20458;-76
2023/09/10 03:24:02;;;;;;;2.45;1.98;;;20.00;1.00;;;;;;5082635;28;20047;-76
2023/09/10 03:26:29;;;;;;;2.28;1.80;;;20.00;1.00;;;;;;5067387;28;20055;-75
2023/09/10 03:28:56;;;;;;;1.90;1.55;;;20.00;1.00;;;;;;5084097;28;20105;-76
2023/09/10 03:31:23;;;;;;;2.03;1.70;;;20.00;1.00;;;;;;5067289;28;20139;-75
2023/09/10 03:33:49;;;;;;;2.10;1.77;;;20.00;1.00;;;;;;5084692;28;20037;-76
2023/09/10 03:36:16;;;;;;;2.28;2.08;;;20.00;1.00;;;;;;5084791;28;20048;-74
2023/09/10 03:38:43;;;;;;;2.00;1.80;;;20.00;99.90;;;;;;5081063;28;20040;-76
2023/09/10 03:41:10;;;;;;;2.30;2.10;;;19.90;99.90;;;;;;5083972;28;20052;-75
2023/09/10 03:43:37;;;;;;;2.42;2.13;;;19.80;99.90;;;;;;5085014;28;20506;-76
2023/09/10 03:46:04;;;;;;;2.20;2.00;;;19.80;1.00;;;;;;5089268;28;20109;-75
2023/09/10 03:48:30;;;;;;;1.70;1.60;;;19.70;99.90;;;;;;5070718;28;20102;-76
2023/09/10 03:50:57;;;;;;;2.53;2.13;;;19.70;1.00;;;;;;5087680;28;20051;-76
2023/09/10 03:53:24;;;;;;;2.47;2.28;;;19.70;1.00;;;;;;5070688;28;20048;-76
2023/09/10 03:55:51;;;;;;;2.22;1.80;;;19.60;1.00;;;;;;5088757;28;20587;-75
2023/09/10 03:58:17;;;;;;;2.45;2.22;;;19.60;1.00;;;;;;5086293;28;20159;-74
2023/09/10 04:00:44;;;;;;;2.28;1.92;;;19.60;1.00;;;;;;5088014;28;20040;-74
2023/09/10 04:03:11;;;;;;;2.20;1.90;;;19.70;1.00;;;;;;5086314;28;20048;-74
2023/09/10 04:05:38;;;;;;;2.47;2.20;;;19.60;1.00;;;;;;5053974;28;20051;-75
2023/09/10 04:08:05;;;;;;;2.83;2.20;;;19.60;1.00;;;;;;5070297;28;20052;-74
2023/09/10 04:10:32;;;;;;;1.98;1.70;;;19.50;1.00;;;;;;5071044;28;20083;-74
2023/09/10 04:12:59;;;;;;;1.77;1.67;;;19.40;1.00;;;;;;5069786;28;20051;-75
2023/09/10 04:15:26;;;;;;;2.13;1.92;;;19.40;1.00;;;;;;5086940;28;20040;-74
2023/09/10 04:17:53;;;;;;;2.17;1.90;;;19.40;1.00;;;;;;5086954;28;20044;-74
2023/09/10 04:20:21;;;;;;;3.92;1.90;;;19.40;1.00;;;;;;5087234;28;20071;-75
2023/09/10 04:22:48;;;;;;;2.13;1.77;;;19.40;1.00;;;;;;5070136;28;20498;-74
2023/09/10 04:25:15;;;;;;;2.47;2.28;;;19.50;1.00;;;;;;5086907;28;20044;-74
2023/09/10 04:27:42;;;;;;;2.60;2.20;;;19.50;1.00;;;;;;5070292;28;20051;-75
2023/09/10 04:30:09;;;;;;;2.97;2.67;;;19.50;1.00;;;;;;5086417;28;20184;-75
2023/09/10 04:32:35;;;;;;;2.75;2.47;;;19.60;1.00;;;;;;5086812;28;20048;-74
2023/09/10 04:35:04;;;;;;;2.20;2.00;;;19.60;1.00;;;;;;5087050;28;20036;-75
2023/09/10 04:37:32;;;;;;;2.90;2.28;;;19.60;1.00;;;;;;5083040;28;20079;-75
2023/09/10 04:39:59;;;;;;;2.13;1.80;;;19.50;1.00;;;;;;5053377;28;20040;-74
2023/09/10 04:42:28;;;;;;;2.92;2.38;;;19.40;1.00;;;;;;5088323;28;20487;-75
2023/09/10 04:44:55;;;;;;;2.30;2.10;;;19.40;1.00;;;;;;5085325;28;20093;-75
2023/09/10 04:47:22;;;;;;;2.55;2.22;;;19.40;1.00;;;;;;5087875;28;20048;-75
2023/09/10 04:49:49;;;;;;;3.17;2.45;;;19.40;1.00;;;;;;5080709;28;20551;-76
2023/09/10 04:52:15;;;;;;;2.15;1.95;;;19.40;1.00;;;;;;5085684;28;20517;-75
2023/09/10 04:54:42;;;;;;;2.38;2.17;;;19.40;1.00;;;;;;5083752;28;20066;-75
2023/09/10 04:57:10;;;;;;;2.20;2.00;;;19.30;1.00;;;;;;5096827;28;20765;-76
2023/09/10 04:59:37;;;;;;;2.35;2.15;;;19.30;1.00;;;;;;5083301;28;20040;-75
2023/09/10 05:02:06;;;;;;;2.95;2.30;;;19.40;1.00;;;;;;5067022;28;20097;-76
2023/09/10 05:04:33;;;;;;;2.30;2.10;;;19.30;1.00;;;;;;5081041;28;20119;-76
2023/09/10 05:07:00;;;;;;;2.50;2.30;;;19.30;1.00;;;;;;5084030;28;20052;-76
2023/09/10 05:09:27;;;;;;;2.08;1.88;;;19.30;1.00;;;;;;5083318;28;20051;-76
2023/09/10 05:11:56;;;;;;;2.25;1.98;;;19.20;1.00;;;;;;5085140;28;20044;-76
2023/09/10 05:14:24;;;;;;;2.42;1.88;;;19.20;1.00;;;;;;5065466;28;20049;-76
2023/09/10 05:16:50;;;;;;;1.92;1.73;;;19.20;1.00;;;;;;5084499;28;20056;-76
2023/09/10 05:19:17;;;;;;;2.03;1.83;;;19.20;1.00;;;;;;5083374;28;20048;-76
2023/09/10 05:21:44;;;;;;;1.70;1.58;;;19.20;1.00;;;;;;5083755;28;20109;-75
2023/09/10 05:24:11;;;;;;;2.33;2.13;;;19.10;1.00;;;;;;5068445;28;20420;-75
2023/09/10 05:26:38;;;;;;;2.38;2.17;;;19.20;1.00;;;;;;5085133;28;20044;-75
2023/09/10 05:29:05;;;;;;;2.33;2.13;;;19.20;1.00;;;;;;5080378;28;20044;-75
2023/09/10 05:31:32;;;;;;;2.50;2.15;;;19.20;1.00;;;;;;5084220;28;20043;-75
2023/09/10 05:33:59;;;;;;;2.55;2.35;;;19.20;1.00;;;;;;5085338;28;20071;-76
2023/09/10 05:36:27;;;;;;;2.45;2.00;;;19.30;1.00;;;;;;5085106;28;20075;-75
2023/09/10 05:38:54;;;;;;;2.40;2.10;;;19.20;1.00;;;;;;5081807;28;20070;-76
2023/09/10 05:41:21;;;;;;;2.33;2.13;;;19.20;1.00;;;;;;5065723;28;20055;-76
2023/09/10 05:43:48;;;;;;;2.60;2.40;;;19.20;1.00;;;;;;5083891;28;20120;-77
2023/09/10 05:46:15;;;;;;;2.78;2.35;;;19.20;1.00;;;;;;5068343;28;20044;-75
2023/09/10 05:48:42;;;;;;;2.70;2.35;;;19.20;1.00;;;;;;5084532;28;20102;-75
2023/09/10 05:51:09;;;;;;;3.22;2.35;;;19.20;1.00;;;;;;5085217;28;20111;-75
2023/09/10 05:53:36;;;;;;;2.60;2.15;;;19.20;1.00;;;;;;5084108;28;20462;-76
2023/09/10 05:56:03;;;;;;;2.47;2.15;;;19.20;1.00;;;;;;5077857;28;20148;-76
2023/09/10 05:58:30;;;;;;;2.33;2.10;;;19.30;1.00;;;;;;5080063;28;20058;-76
2023/09/10 06:00:57;;;;;;;2.33;2.10;;;19.20;1.00;;;;;;5081948;28;20048;-76
2023/09/10 06:03:24;;;;;;;2.55;2.17;;;19.30;1.00;;;;;;5083187;28;20052;-76
2023/09/10 06:05:51;;;;;;;2.17;1.95;;;19.30;1.00;;;;;;5083606;28;20147;-76
2023/09/10 06:08:17;;;;;;;2.00;1.80;;;19.30;1.00;;;;;;5067292;28;20055;-76
2023/09/10 06:10:44;;;;;;;2.95;2.13;;;19.30;1.00;;;;;;5069425;28;20044;-75
2023/09/10 06:13:11;;;;;;;1.85;1.67;;;19.30;1.00;;;;;;5085380;28;20088;-75
2023/09/10 06:15:38;;;;;;;2.47;2.05;;;19.30;1.00;;;;;;5087105;28;20101;-75
2023/09/10 06:18:05;;;;;;;2.15;1.95;;;19.30;1.00;;;;;;5081935;28;20043;-75
2023/09/10 06:20:32;;;;;;;2.17;1.90;;;19.30;1.00;;;;;;5082645;28;20137;-76
2023/09/10 06:22:59;;;;;;;2.40;2.17;;;19.40;1.00;;;;;;5082133;28;20060;-75
2023/09/10 06:25:26;;;;;;;2.40;2.20;;;19.40;1.00;;;;;;5083890;28;20125;-75
2023/09/10 06:27:53;;;;;;;2.63;2.42;;;19.40;1.00;;;;;;5082217;28;20075;-76
2023/09/10 06:30:20;;;;;;;3.53;2.90;;;19.40;1.00;;;;;;5080840;28;20047;-75
2023/09/10 06:32:49;;;;;;;4.15;3.30;;;19.50;1.00;;;;;;5085894;28;20149;-75
2023/09/10 06:35:16;;;;;;;2.88;2.58;;;19.50;1.00;;;;;;5068806;28;20146;-76
2023/09/10 06:37:43;;;;;;;3.13;2.83;;;19.60;1.00;;;;;;5085983;28;20054;-75
2023/09/10 06:40:10;;;;;;;3.47;3.17;;;19.70;1.00;;;;;;5080259;28;20575;-76
2023/09/10 06:42:37;;;;;;;3.60;3.25;;;19.70;1.00;;;;;;5072354;28;20062;-75
2023/09/10 06:45:04;;;;;;;3.83;3.10;;;19.70;1.00;;;;;;5067106;28;20612;-75
2023/09/10 06:47:31;;;;;;;4.25;3.85;;;19.80;1.00;;;;;;5086554;28;20391;-75
2023/09/10 06:49:58;;;;;;;4.15;3.75;;;19.80;1.00;;;;;;5067763;28;20513;-76
2023/09/10 06:52:25;;;;;;;3.95;3.55;;;19.90;1.00;;;;;;5085117;28;20059;-76
2023/09/10 06:54:51;;;;;;;4.05;3.65;;;20.00;1.00;;;;;;5085826;28;20078;-75
2023/09/10 06:57:20;;;;;;;5.07;4.55;;;20.00;1.00;;;;;;5086536;28;20047;-75
2023/09/10 06:59:46;;;;;;;5.47;4.35;;;20.00;1.00;;;;;;5084325;28;20066;-76
2023/09/10 07:02:13;;;;;;;4.72;3.85;;;20.10;1.00;;;;;;5082443;28;20376;-76
2023/09/10 07:04:47;;;;;;;4.47;4.03;;;20.10;1.00;;;;;;5082061;28;20139;-75
2023/09/10 07:07:15;;;;;;;4.38;3.97;;;20.20;1.00;;;;;;5082928;28;20059;-75
2023/09/10 07:09:42;;;;;;;4.18;3.78;;;20.20;1.00;;;;;;5064969;28;20052;-77
2023/09/10 07:12:09;;;;;;;4.60;4.10;;;20.30;1.00;;;;;;5079685;28;20052;-77
2023/09/10 07:14:36;;;;;;;4.03;3.63;;;20.40;1.00;;;;;;5081088;28;20477;-77
2023/09/10 07:17:03;;;;;;;4.20;3.80;;;20.50;1.00;;;;;;5080522;28;20056;-78
2023/09/10 07:19:29;;;;;;;3.83;3.53;;;20.60;1.00;;;;;;5046595;28;20324;-77
2023/09/10 07:21:57;;;;;;;3.50;3.15;;;20.60;1.00;;;;;;5074370;28;20118;-78
2023/09/10 07:24:23;;;;;;;4.28;3.88;;;20.70;1.00;;;;;;5062091;28;20277;-77
2023/09/10 07:26:50;;;;;;;4.38;3.97;;;20.80;1.00;;;;;;5069725;28;20258;-77
2023/09/10 07:29:17;;;;;;;4.82;4.38;;;20.90;1.00;;;;;;5076258;28;20048;-77
2023/09/10 07:31:44;;;;;;;4.40;3.80;;;21.00;1.00;;;;;;5074993;28;20105;-77
2023/09/10 07:34:11;;;;;;;4.47;4.07;;;21.10;1.00;;;;;;5057849;28;20048;-78
2023/09/10 07:36:38;;;;;;;4.88;4.38;;;21.20;1.00;;;;;;5079725;28;20535;-78
2023/09/10 07:39:06;;;;;;;4.53;4.13;;;21.30;1.00;;;;;;5079686;28;20135;-78
2023/09/10 07:41:33;;;;;;;5.10;4.43;;;21.40;1.00;;;;;;5078199;28;20044;-78
2023/09/10 07:44:02;;;;;;;4.30;3.90;;;21.50;1.00;;;;;;5062478;28;20055;-77
2023/09/10 07:46:30;;;;;;;3.50;3.10;;;21.60;1.00;;;;;;5081124;28;20427;-78
2023/09/10 07:48:57;;;;;;;3.90;3.47;;;21.70;1.00;;;;;;5081100;28;20109;-78
2023/09/10 07:51:24;;;;;;;3.88;3.55;;;21.80;1.00;;;;;;5082596;28;20076;-78
2023/09/10 07:53:51;;;;;;;4.57;3.70;;;22.00;1.00;;;;;;5082974;28;20058;-77
2023/09/10 07:56:18;;;;;;;3.20;2.90;;;22.00;1.00;;;;;;5083363;28;20045;-78
2023/09/10 07:58:45;;;;;;;3.40;3.10;;;22.20;1.00;;;;;;5077412;28;20592;-77
2023/09/10 08:01:12;;;;;;;3.97;3.58;;;22.30;99.90;;;;;;5081463;28;20063;-78
2023/09/10 08:03:41;;;;;;;4.40;4.00;;;22.50;99.90;;;;;;5080918;28;20138;-78
2023/09/10 08:06:08;;;;;;;3.72;3.42;;;22.50;99.90;;;;;;5079845;28;20503;-78
2023/09/10 08:08:35;;;;;;;3.03;2.72;;;22.70;99.90;;;;;;5065178;28;20048;-78
2023/09/10 08:11:02;;;;;;;3.30;3.00;;;22.80;99.90;;;;;;5081027;28;20048;-78
2023/09/10 08:13:29;;;;;;;3.33;2.90;;;22.90;99.90;;;;;;5062128;28;20059;-78
2023/09/10 08:15:55;;;;;;;3.80;3.42;;;23.00;99.90;;;;;;5081079;28;20040;-78
2023/09/10 08:18:25;;;;;;;3.80;3.38;;;23.00;99.90;;;;;;5064671;28;20052;-78
2023/09/10 08:20:54;;;;;;;5.40;4.90;;;23.20;99.90;;;;;;5079630;28;20051;-78
2023/09/10 08:23:21;;;;;;;5.32;4.82;;;23.20;99.90;;;;;;5080898;28;20135;-77
2023/09/10 08:25:52;;;;;;;5.25;4.75;;;23.30;99.90;;;;;;5081283;28;20511;-79
2023/09/10 08:28:19;;;;;;;3.72;3.42;;;23.30;99.90;;;;;;5078156;28;20903;-79
2023/09/10 08:30:46;;;;;;;4.47;4.07;;;23.30;99.90;;;;;;5084308;28;20233;-78
2023/09/10 08:33:13;;;;;;;4.05;3.65;;;23.40;99.90;;;;;;5081414;28;20055;-78
2023/09/10 08:35:50;;;;;;;3.30;2.97;;;23.50;99.90;;;;;;5081689;28;20040;-78
2023/09/10 08:38:17;;;;;;;3.15;2.85;;;23.60;99.90;;;;;;5083161;28;20056;-78
2023/09/10 08:41:07;;;;;;;3.42;2.95;;;23.80;99.90;;;;;;5052318;28;20119;-78
2023/09/10 08:43:55;;;;;;;3.20;2.85;;;23.90;99.90;;;;;;5051281;28;20554;-77
2023/09/10 08:46:29;;;;;;;3.38;3.08;;;24.00;99.90;;;;;;5065693;28;20044;-79
2023/09/10 08:48:57;;;;;;;3.25;2.92;;;24.10;99.90;;;;;;5063183;28;20048;-77
2023/09/10 08:51:24;;;;;;;3.72;3.30;;;24.10;99.90;;;;;;5080583;28;20266;-77
2023/09/10 08:53:54;;;;;;;3.28;2.97;;;24.20;99.90;;;;;;5083223;28;20121;-77
2023/09/10 08:56:20;;;;;;;3.40;3.10;;;24.30;87.50;;;;;;5062513;28;20570;-77
2023/09/10 08:58:48;;;;;;;3.90;3.50;;;24.40;91.30;;;;;;5077076;28;20127;-78
2023/09/10 09:01:15;;;;;;;4.72;4.32;;;24.50;99.90;;;;;;5082252;28;20085;-78
2023/09/10 09:03:42;;;;;;;4.28;3.60;;;24.60;58.00;;;;;;5064356;28;20066;-76
2023/09/10 09:06:09;;;;;;;3.78;3.35;;;24.60;1.00;;;;;;5061967;28;20120;-76
2023/09/10 09:08:36;;;;;;;3.03;2.75;;;24.70;1.00;;;;;;5065814;28;20051;-77
2023/09/10 09:11:05;;;;;;;2.92;2.63;;;24.80;1.00;;;;;;5081373;28;20048;-76
2023/09/10 09:13:37;;;;;;;3.10;2.80;;;24.80;1.00;;;;;;5078669;28;20480;-76
2023/09/10 09:16:05;;;;;;;2.83;2.53;;;24.90;1.00;;;;;;5082825;28;20059;-76
2023/09/10 09:18:34;;;;;;;4.07;2.63;;;25.00;1.00;;;;;;5062537;28;20071;-76
2023/09/10 09:21:15;;;;;;;2.95;2.65;;;25.00;99.90;;;;;;5066650;28;20054;-76
2023/09/10 09:23:45;;;;;;;3.55;3.25;;;25.10;1.00;;;;;;5063900;28;20052;-76
2023/09/10 09:26:14;;;;;;;3.20;2.55;;;25.20;99.90;;;;;;5076200;28;20072;-75
2023/09/10 09:28:41;;;;;;;3.92;2.35;;;25.30;99.90;;;;;;5049592;28;20047;-76
2023/09/10 09:31:09;;;;;;;2.60;2.20;;;25.40;99.90;;;;;;5083026;28;20105;-76
2023/09/10 09:33:39;;;;;;;2.55;2.22;;;25.50;99.90;;;;;;5079500;28;20077;-76
2023/09/10 09:36:09;;;;;;;3.10;2.80;;;25.60;99.90;;;;;;5063386;28;20075;-75
2023/09/10 09:38:42;;;;;;;2.90;2.47;;;25.70;99.90;;;;;;5067318;28;20086;-76
2023/09/10 09:41:09;;;;;;;;;;;25.90;99.90;;;;;;5051469;28;20562;-75
2023/09/10 09:43:36;;;;;;;2.20;2.00;;;26.00;99.90;;;;;;5083310;28;19971;-76
2023/09/10 09:46:03;;;;;;;2.95;2.70;;;26.10;96.50;;;;;;5085383;28;20104;-75
2023/09/10 09:48:30;;;;;;;3.55;3.25;;;26.20;99.90;;;;;;5084116;28;20079;-75
2023/09/10 09:50:57;;;;;;;3.35;2.58;;;26.20;1.00;;;;;;5085173;28;20063;-75
2023/09/10 09:53:28;;;;;;;2.67;2.47;;;26.30;1.00;;;;;;5050396;28;20078;-76
2023/09/10 09:55:59;;;;;;;3.97;3.08;;;26.40;99.90;;;;;;5083866;28;20152;-75
2023/09/10 09:58:27;;;;;;;3.30;3.00;;;26.50;1.00;;;;;;5082336;28;20079;-75
2023/09/10 10:00:55;;;;;;;2.92;2.72;;;26.60;99.90;;;;;;5084318;28;20044;-76
2023/09/10 10:03:22;;;;;;;2.67;2.47;;;26.60;99.90;;;;;;5084479;28;20059;-75
2023/09/10 10:05:52;;;;;;;2.58;2.13;;;26.60;99.90;;;;;;5083964;28;20572;-75
2023/09/10 10:08:23;;;;;;;2.00;1.83;;;26.70;1.00;;;;;;5082925;28;20105;-75
2023/09/10 10:10:50;;;;;;;3.25;2.45;;;26.80;64.90;;;;;;5050911;28;20040;-76
2023/09/10 10:13:18;;;;;;;2.28;2.08;;;26.90;1.00;;;;;;5082206;28;20100;-76
2023/09/10 10:15:49;;;;;;;3.08;2.78;;;27.10;99.90;;;;;;5063452;28;20090;-78
2023/09/10 10:18:17;;;;;;;3.25;2.95;;;27.20;1.00;;;;;;5082594;28;20059;-78
2023/09/10 10:20:47;;;;;;;2.60;2.25;;;27.40;10.10;;;;;;5059427;28;20114;-77
2023/09/10 10:23:17;;;;;;;2.97;2.60;;;27.50;1.00;;;;;;5047604;28;20722;-77
2023/09/10 10:25:52;;;;;;;3.15;2.85;;;27.70;99.90;;;;;;5079659;28;20044;-78
2023/09/10 10:28:19;;;;;;;3.60;3.30;;;27.80;9.70;;;;;;5065368;28;20165;-77
2023/09/10 10:30:50;;;;;;;3.40;3.05;;;27.90;1.00;;;;;;5083030;28;20807;-77
2023/09/10 10:33:17;;;;;;;3.28;2.97;;;28.00;1.00;;;;;;5068350;28;20059;-76
2023/09/10 10:35:50;;;;;;;3.47;3.17;;;28.10;1.00;;;;;;5079062;28;20050;-76
2023/09/10 10:38:17;;;;;;;2.55;2.35;;;28.30;1.00;;;;;;5066267;28;20426;-76
2023/09/10 10:40:44;;;;;;;2.60;2.40;;;28.40;1.00;;;;;;5082215;28;20600;-76
2023/09/10 10:43:23;;;;;;;2.40;2.20;;;28.60;1.00;;;;;;5079689;28;20153;-76
2023/09/10 10:45:50;;;;;;;2.50;2.13;;;28.80;1.00;;;;;;5066008;28;20051;-76
2023/09/10 10:48:19;;;;;;;2.40;2.20;;;28.90;99.90;;;;;;5079573;28;20044;-76
2023/09/10 10:50:46;;;;;;;2.67;2.03;;;29.00;99.90;;;;;;5068301;28;20442;-76
2023/09/10 10:53:24;;;;;;;2.25;2.03;;;29.00;99.90;;;;;;5081495;28;20127;-77
2023/09/10 10:55:58;;;;;;;2.55;2.10;;;29.20;99.90;;;;;;5082618;28;20101;-76
2023/09/10 10:58:29;;;;;;;2.35;2.15;;;29.30;99.90;;;;;;5081769;28;20058;-76
2023/09/10 11:00:57;;;;;;;2.13;1.92;;;29.40;99.90;;;;;;5080384;28;20566;-77
2023/09/10 11:03:25;;;;;;;1.92;1.77;;;29.50;99.90;;;;;;5045601;28;20052;-76
2023/09/10 11:05:52;;;;;;;2.10;1.90;;;29.70;99.90;;;;;;5081604;28;20128;-77
2023/09/10 11:08:34;;;;;;;1.63;1.52;;;29.90;99.90;;;;;;5086933;28;20678;-77
2023/09/10 11:11:03;;;;;;;1.83;1.67;;;30.10;99.90;;;;;;5075758;28;20044;-77
2023/09/10 11:13:31;;;;;;;1.70;1.50;;;30.40;99.90;;;;;;5084756;28;20062;-77
2023/09/10 11:16:04;;;;;;;1.95;1.58;;;30.60;99.90;;;;;;5073193;28;20052;-77
2023/09/10 11:18:34;;;;;;;1.63;1.40;;;30.80;99.90;;;;;;5076445;28;20041;-77
2023/09/10 11:21:08;;;;;;;1.60;1.40;;;30.80;99.90;;;;;;5077502;28;20041;-77
2023/09/10 11:23:36;;;;;;;1.60;1.45;;;30.80;99.90;;;;;;5082818;28;20140;-76
2023/09/10 11:26:13;;;;;;;1.60;1.25;;;30.80;99.90;;;;;;5073202;28;20047;-76
2023/09/10 11:28:45;;;;;;;1.60;1.50;;;30.80;99.90;;;;;;5070098;28;20510;-76
2023/09/10 11:31:47;;;;;;;1.83;1.40;;;30.70;99.90;;;;;;5085194;28;20048;-76
2023/09/10 11:34:17;;;;;;;;;;;30.80;99.90;;;;;;5058358;28;20156;-76
2023/09/10 11:36:48;;;;;;;1.35;1.10;;;31.10;99.90;;;;;;5074903;28;19928;-76
2023/09/10 11:39:15;;;;;;;1.17;1.08;;;31.60;99.90;;;;;;5069335;28;20498;-75
2023/09/10 11:41:49;;;;;;;1.50;1.40;;;31.80;99.90;;;;;;5081744;28;20048;-76
2023/09/10 11:44:16;;;;;;;1.95;1.70;;;32.00;99.90;;;;;;5080969;28;20058;-76
2023/09/10 11:46:43;;;;;;;1.90;1.77;;;31.90;99.90;;;;;;5079380;28;20059;-76
2023/09/10 11:49:13;;;;;;;2.13;1.88;;;32.00;99.90;;;;;;5061829;28;20131;-77
2023/09/10 11:51:44;;;;;;;1.75;1.50;;;32.20;99.90;;;;;;5078238;28;20051;-77
2023/09/10 11:54:18;;;;;;;1.50;1.40;;;32.40;99.90;;;;;;5060683;28;20474;-76
2023/09/10 11:56:52;;;;;;;2.05;1.65;;;32.70;99.90;;;;;;5074268;28;20045;-77
2023/09/10 11:59:29;;;;;;;3.03;2.10;;;33.00;99.90;;;;;;5063504;28;20234;-76
2023/09/10 12:01:57;;;;;;;2.30;1.90;;;33.20;99.90;;;;;;5077224;28;20048;-76
2023/09/10 12:04:28;;;;;;;1.92;1.70;;;33.50;99.90;;;;;;5079259;28;20044;-76
2023/09/10 12:06:55;;;;;;;1.80;1.50;;;33.70;99.90;;;;;;5046792;28;20289;-76
2023/09/10 12:09:22;;;;;;;1.42;1.25;;;34.00;99.90;;;;;;5078995;28;20062;-76
2023/09/10 12:11:50;;;;;;;1.50;1.27;;;34.20;99.90;;;;;;5086028;28;20101;-76
2023/09/10 12:14:17;;;;;;;1.40;1.27;;;34.40;99.90;;;;;;5067113;28;20605;-76
2023/09/10 12:16:44;;;;;;;1.60;1.15;;;34.50;99.90;;;;;;5085581;28;20040;-76
2023/09/10 12:19:11;;;;;;;2.35;2.05;;;34.60;99.90;;;;;;5085702;28;20056;-76
2023/09/10 12:21:41;;;;;;;1.50;1.40;;;34.70;99.90;;;;;;5089530;28;20062;-76
2023/09/10 12:24:08;;;;;;;2.08;1.38;;;35.00;99.90;;;;;;5082512;28;20078;-77
2023/09/10 12:26:35;;;;;;;1.60;1.42;;;35.30;99.90;;;;;;5078726;28;20098;-77
2023/09/10 12:29:03;;;;;;;1.88;1.40;;;35.40;99.90;;;;;;5068924;28;20105;-77
2023/09/10 12:31:30;;;;;;;1.52;1.25;;;35.30;99.90;;;;;;5068892;28;20101;-77
2023/09/10 12:33:57;;;;;;;1.50;1.30;;;35.10;99.90;;;;;;5048528;28;20118;-77
2023/09/10 12:36:24;;;;;;;1.60;1.17;;;34.90;99.90;;;;;;5078556;28;20048;-76
2023/09/10 12:38:51;;;;;;;2.40;1.50;;;34.70;99.90;;;;;;5079121;28;20120;-77
2023/09/10 12:41:18;;;;;;;2.17;1.55;;;34.70;99.90;;;;;;5079824;28;20048;-76
2023/09/10 12:43:44;;;;;;;1.65;1.10;;;35.00;99.90;;;;;;5075898;28;20055;-76
2023/09/10 12:46:11;;;;;;;1.40;1.30;;;34.90;99.90;;;;;;5080674;28;20048;-77
2023/09/10 12:48:38;;;;;;;2.35;1.48;;;34.70;99.90;;;;;;5057857;28;20077;-76
2023/09/10 12:51:06;;;;;;;2.20;1.33;;;34.70;99.90;;;;;;5065063;28;20083;-77
2023/09/10 12:53:35;;;;;;;1.40;1.20;;;34.80;99.90;;;;;;5080713;28;20491;-76
2023/09/10 12:56:02;;;;;;;1.52;1.08;;;34.80;99.90;;;;;;5087901;28;20123;-77
2023/09/10 12:58:30;;;;;;;1.17;1.00;;;34.50;99.90;;;;;;5070061;28;20602;-77